createdAt,value
2023-04-26T00:01:18.465Z,11.63
2023-04-26T00:03:46.553Z,14.52
2023-04-26T00:06:14.734Z,15.68
2023-04-26T00:08:43.157Z,15.65
2023-04-26T00:11:10.900Z,13.30
2023-04-26T00:13:38.600Z,15.25
2023-04-26T00:16:06.720Z,14.55
2023-04-26T00:18:34.345Z,14.00
2023-04-26T00:21:01.866Z,14.18
2023-04-26T00:23:29.466Z,14.52
2023-04-26T00:25:57.748Z,17.15
2023-04-26T00:28:25.510Z,14.88
2023-04-26T00:30:53.141Z,14.07
2023-04-26T00:33:20.685Z,13.23
2023-04-26T00:35:48.222Z,12.65
2023-04-26T00:38:15.844Z,13.52
2023-04-26T00:40:43.441Z,12.57
2023-04-26T00:43:11.842Z,15.60
2023-04-26T00:45:39.901Z,12.15
2023-04-26T00:48:07.577Z,12.95
2023-04-26T00:50:35.186Z,15.18
2023-04-26T00:53:03.696Z,14.35
2023-04-26T00:55:31.486Z,13.10
2023-04-26T00:57:59.726Z,12.52
2023-04-26T01:00:27.680Z,14.55
2023-04-26T01:02:55.295Z,12.95
2023-04-26T01:05:22.872Z,12.95
2023-04-26T01:07:51.030Z,13.35
2023-04-26T01:10:18.916Z,13.60
2023-04-26T01:12:46.849Z,14.73
2023-04-26T01:15:18.614Z,12.80
2023-04-26T01:17:49.704Z,14.25
2023-04-26T01:20:17.287Z,13.35
2023-04-26T01:22:45.633Z,11.38
2023-04-26T01:25:13.267Z,11.18
2023-04-26T01:27:41.662Z,11.57
2023-04-26T01:30:09.700Z,10.95
2023-04-26T01:32:37.273Z,10.75
2023-04-26T01:35:05.725Z,11.25
2023-04-26T01:37:33.282Z,10.98
2023-04-26T01:40:00.914Z,9.10
2023-04-26T01:42:28.487Z,10.38
2023-04-26T01:44:56.065Z,8.75
2023-04-26T01:47:23.753Z,10.82
2023-04-26T01:49:52.697Z,12.27
2023-04-26T01:52:21.743Z,11.38
2023-04-26T01:54:49.267Z,13.88
2023-04-26T01:57:16.870Z,10.80
2023-04-26T01:59:45.805Z,11.52
2023-04-26T02:02:13.369Z,12.38
2023-04-26T02:04:41.268Z,12.27
2023-04-26T02:07:08.965Z,12.93
2023-04-26T02:09:46.638Z,11.18
2023-04-26T02:12:14.203Z,10.75
2023-04-26T02:14:41.733Z,12.02
2023-04-26T02:17:11.184Z,11.35
2023-04-26T02:19:38.710Z,10.48
2023-04-26T02:22:06.485Z,11.50
2023-04-26T02:24:34.221Z,8.88
2023-04-26T02:27:04.927Z,9.10
2023-04-26T02:29:43.918Z,9.18
2023-04-26T02:32:13.098Z,8.63
2023-04-26T02:34:40.701Z,8.07
2023-04-26T02:37:08.961Z,8.38
2023-04-26T02:39:36.750Z,8.27
2023-04-26T02:42:04.635Z,8.23
2023-04-26T02:44:32.340Z,7.63
2023-04-26T02:46:59.896Z,10.07
2023-04-26T02:49:28.053Z,6.57
2023-04-26T02:51:56.368Z,7.90
2023-04-26T02:54:24.437Z,8.80
2023-04-26T02:56:52.748Z,8.68
2023-04-26T02:59:22.011Z,10.18
2023-04-26T03:01:49.581Z,6.10
2023-04-26T03:04:18.211Z,8.88
2023-04-26T03:06:45.880Z,8.95
2023-04-26T03:09:13.499Z,6.30
2023-04-26T03:11:41.951Z,8.48
2023-04-26T03:14:09.546Z,10.30
2023-04-26T03:16:43.772Z,9.55
2023-04-26T03:19:11.406Z,9.93
2023-04-26T03:21:40.060Z,9.82
2023-04-26T03:24:07.896Z,9.02
2023-04-26T03:26:35.500Z,8.60
2023-04-26T03:29:03.464Z,10.02
2023-04-26T03:31:31.243Z,11.35
2023-04-26T03:33:59.503Z,9.35
2023-04-26T03:36:28.535Z,9.52
2023-04-26T03:38:56.505Z,10.68
2023-04-26T03:41:24.501Z,9.75
2023-04-26T03:43:52.306Z,7.50
2023-04-26T03:46:19.904Z,9.68
2023-04-26T03:48:49.069Z,11.15
2023-04-26T03:51:17.337Z,10.18
2023-04-26T03:53:46.735Z,10.77
2023-04-26T03:56:14.467Z,12.48
2023-04-26T03:58:42.174Z,9.95
2023-04-26T04:01:09.716Z,9.18
2023-04-26T04:03:39.194Z,10.95
2023-04-26T04:06:08.454Z,9.82
2023-04-26T04:08:36.133Z,8.50
2023-04-26T04:11:03.702Z,9.90
2023-04-26T04:13:32.359Z,11.18
2023-04-26T04:16:00.149Z,12.77
2023-04-26T04:18:27.748Z,8.23
2023-04-26T04:20:55.827Z,11.25
2023-04-26T04:23:23.352Z,10.40
2023-04-26T04:25:51.520Z,10.45
2023-04-26T04:28:19.190Z,12.77
2023-04-26T04:30:47.212Z,10.65
2023-04-26T04:33:14.925Z,9.57
2023-04-26T04:35:43.300Z,51.20
2023-04-26T04:38:10.904Z,11.65
2023-04-26T04:40:38.480Z,11.63
2023-04-26T04:43:06.178Z,9.50
2023-04-26T04:45:33.932Z,11.48
2023-04-26T04:48:05.122Z,11.82
2023-04-26T04:50:33.174Z,11.63
2023-04-26T04:53:01.010Z,13.75
2023-04-26T04:55:29.500Z,13.30
2023-04-26T04:57:57.469Z,14.02
2023-04-26T05:00:25.833Z,13.02
2023-04-26T05:03:00.644Z,9.50
2023-04-26T05:05:28.471Z,14.30
2023-04-26T05:07:56.129Z,11.13
2023-04-26T05:10:23.747Z,13.82
2023-04-26T05:12:51.747Z,13.63
2023-04-26T05:15:19.325Z,12.27
2023-04-26T05:17:47.065Z,12.55
2023-04-26T05:20:20.470Z,13.23
2023-04-26T05:22:48.100Z,12.88
2023-04-26T05:25:17.243Z,15.40
2023-04-26T05:27:48.465Z,13.43
2023-04-26T05:30:37.944Z,12.07
2023-04-26T05:33:21.787Z,12.27
2023-04-26T05:35:54.967Z,12.10
2023-04-26T05:38:22.583Z,13.98
2023-04-26T05:40:50.500Z,13.52
2023-04-26T05:43:18.648Z,16.50
2023-04-26T05:45:53.739Z,16.27
2023-04-26T05:48:22.285Z,13.65
2023-04-26T05:50:50.521Z,13.80
2023-04-26T05:53:19.169Z,14.05
2023-04-26T05:55:46.741Z,13.90
2023-04-26T05:58:14.501Z,14.40
2023-04-26T06:00:42.487Z,11.20
2023-04-26T06:03:10.940Z,11.88
2023-04-26T06:05:38.730Z,12.88
2023-04-26T06:08:06.700Z,12.07
2023-04-26T06:10:37.547Z,12.00
2023-04-26T06:13:05.334Z,11.55
2023-04-26T06:15:36.209Z,11.47
2023-04-26T06:18:05.258Z,11.50
2023-04-26T06:20:32.959Z,14.95
2023-04-26T06:23:00.505Z,12.40
2023-04-26T06:25:28.276Z,15.35
2023-04-26T06:27:55.969Z,11.75
2023-04-26T06:30:24.639Z,14.32
2023-04-26T06:32:53.069Z,13.63
2023-04-26T06:35:20.901Z,10.35
2023-04-26T06:37:48.948Z,12.38
2023-04-26T06:40:16.669Z,12.95
2023-04-26T06:42:44.926Z,17.30
2023-04-26T06:45:29.422Z,11.55
2023-04-26T06:47:57.739Z,12.43
2023-04-26T06:50:27.671Z,10.95
2023-04-26T06:52:55.301Z,11.13
2023-04-26T06:55:22.918Z,11.68
2023-04-26T06:57:50.939Z,12.70
2023-04-26T07:00:18.936Z,13.20
2023-04-26T07:02:46.700Z,13.20
2023-04-26T07:05:15.369Z,10.55
2023-04-26T07:07:43.039Z,11.93
2023-04-26T07:10:10.854Z,16.92
2023-04-26T07:12:38.842Z,16.23
2023-04-26T07:15:06.709Z,9.95
2023-04-26T07:17:34.402Z,11.50
2023-04-26T07:20:02.060Z,12.23
2023-04-26T07:22:29.914Z,13.73
2023-04-26T07:24:57.788Z,11.65
2023-04-26T07:27:25.578Z,15.10
2023-04-26T07:29:56.259Z,10.25
2023-04-26T07:32:24.014Z,14.13
2023-04-26T07:34:51.853Z,10.93
2023-04-26T07:37:19.381Z,13.00
2023-04-26T07:39:46.943Z,10.95
2023-04-26T07:42:14.520Z,15.20
2023-04-26T07:44:42.078Z,13.93
2023-04-26T07:47:13.702Z,10.98
2023-04-26T07:49:41.385Z,9.80
2023-04-26T07:52:09.573Z,12.13
2023-04-26T07:54:37.244Z,10.93
2023-04-26T07:57:04.769Z,11.15
2023-04-26T07:59:32.307Z,12.23
2023-04-26T08:01:59.869Z,11.07
2023-04-26T08:04:34.976Z,10.98
2023-04-26T08:07:02.947Z,9.50
2023-04-26T08:09:30.643Z,9.15
2023-04-26T08:11:58.672Z,11.50
2023-04-26T08:14:26.504Z,10.48
2023-04-26T08:16:54.190Z,9.13
2023-04-26T08:19:21.943Z,11.65
2023-04-26T08:21:49.555Z,9.82
2023-04-26T08:24:17.261Z,11.98
2023-04-26T08:26:45.083Z,11.43
2023-04-26T08:29:12.635Z,10.80
2023-04-26T08:31:40.361Z,9.30
2023-04-26T08:34:11.101Z,9.93
2023-04-26T08:36:39.085Z,8.73
2023-04-26T08:39:06.946Z,8.85
2023-04-26T08:41:36.943Z,8.90
2023-04-26T08:44:08.278Z,8.07
2023-04-26T08:46:41.987Z,8.55
2023-04-26T08:49:29.998Z,11.38
2023-04-26T08:51:58.517Z,11.32
2023-04-26T08:54:26.611Z,6.72
2023-04-26T08:56:56.227Z,8.95
2023-04-26T08:59:23.860Z,9.32
2023-04-26T09:01:51.517Z,7.45
2023-04-26T09:04:19.355Z,7.85
2023-04-26T09:06:47.674Z,10.88
2023-04-26T09:09:20.230Z,7.38
2023-04-26T09:11:57.937Z,7.07
2023-04-26T09:14:25.753Z,11.00
2023-04-26T09:16:53.387Z,7.07
2023-04-26T09:19:37.024Z,11.18
2023-04-26T09:22:06.478Z,10.10
2023-04-26T09:24:50.631Z,5.93
2023-04-26T09:27:18.606Z,11.73
2023-04-26T09:29:59.849Z,8.95
2023-04-26T09:32:29.119Z,9.35
2023-04-26T09:34:56.698Z,12.32
2023-04-26T09:37:24.200Z,7.20
2023-04-26T09:39:51.801Z,9.60
2023-04-26T09:42:19.728Z,12.20
2023-04-26T09:44:47.360Z,9.98
2023-04-26T09:47:15.158Z,7.60
2023-04-26T09:49:50.611Z,7.55
2023-04-26T09:52:19.174Z,8.68
2023-04-26T09:54:47.993Z,8.60
2023-04-26T09:57:16.539Z,5.93
2023-04-26T09:59:46.715Z,7.43
2023-04-26T10:02:19.808Z,7.75
2023-04-26T10:04:48.829Z,6.57
2023-04-26T10:09:47.776Z,6.47
2023-04-26T10:12:16.747Z,5.93
2023-04-26T10:14:47.234Z,4.68
2023-04-26T10:17:15.025Z,6.03
2023-04-26T10:19:46.563Z,6.57
2023-04-26T10:22:17.964Z,8.57
2023-04-26T10:24:45.826Z,8.57
2023-04-26T10:27:13.508Z,6.22
2023-04-26T10:29:59.523Z,6.25
2023-04-26T10:32:27.029Z,4.40
2023-04-26T10:35:21.662Z,6.22
2023-04-26T10:37:58.332Z,9.38
2023-04-26T10:40:32.947Z,7.13
2023-04-26T10:43:13.598Z,8.32
2023-04-26T10:45:42.051Z,7.30
2023-04-26T10:48:19.013Z,5.97
2023-04-26T10:51:02.344Z,6.80
2023-04-26T10:53:33.922Z,5.35
2023-04-26T10:56:01.544Z,4.65
2023-04-26T10:58:31.248Z,3.97
2023-04-26T11:01:11.546Z,3.85
2023-04-26T11:03:39.361Z,3.42
2023-04-26T11:06:16.254Z,2.92
2023-04-26T11:08:43.913Z,4.65
2023-04-26T11:11:13.383Z,7.53
2023-04-26T11:13:42.482Z,5.28
2023-04-26T11:16:14.399Z,6.05
2023-04-26T11:18:43.378Z,3.75
2023-04-26T11:21:12.759Z,4.78
2023-04-26T11:23:40.826Z,5.97
2023-04-26T11:26:09.474Z,7.05
2023-04-26T11:28:38.308Z,6.40
2023-04-26T11:31:07.118Z,5.47
2023-04-26T11:33:34.989Z,5.43
2023-04-26T11:36:02.912Z,7.38
2023-04-26T11:38:30.603Z,5.82
2023-04-26T11:40:58.111Z,4.07
2023-04-26T11:43:39.072Z,5.72
2023-04-26T11:46:07.362Z,7.03
2023-04-26T11:48:36.093Z,5.20
2023-04-26T11:51:04.232Z,6.75
2023-04-26T11:53:42.294Z,9.27
2023-04-26T11:56:20.522Z,2.58
2023-04-26T11:58:49.262Z,3.95
2023-04-26T12:01:23.870Z,4.50
2023-04-26T12:03:52.643Z,4.57
2023-04-26T12:06:21.602Z,4.72
2023-04-26T12:08:52.411Z,3.65
2023-04-26T12:11:20.085Z,6.27
2023-04-26T12:13:47.662Z,6.10
2023-04-26T12:16:25.681Z,5.05
2023-04-26T12:18:54.735Z,5.00
2023-04-26T12:21:22.373Z,3.85
2023-04-26T12:23:49.959Z,5.18
2023-04-26T12:26:17.735Z,6.05
2023-04-26T12:28:45.606Z,5.05
2023-04-26T12:31:13.443Z,7.50
2023-04-26T12:33:41.085Z,5.90
2023-04-26T12:36:12.308Z,3.53
2023-04-26T12:38:40.863Z,5.13
2023-04-26T12:41:08.557Z,6.90
2023-04-26T12:43:36.506Z,4.80
2023-04-26T12:46:04.224Z,5.55
2023-04-26T12:48:32.141Z,5.47
2023-04-26T12:51:00.349Z,5.75
2023-04-26T12:53:27.907Z,7.05
2023-04-26T12:55:55.844Z,7.28
2023-04-26T12:58:23.418Z,5.93
2023-04-26T13:00:51.226Z,4.95
2023-04-26T13:03:18.935Z,6.15
2023-04-26T13:05:46.615Z,4.22
2023-04-26T13:08:14.402Z,5.32
2023-04-26T13:10:42.241Z,4.38
2023-04-26T13:13:09.779Z,4.47
2023-04-26T13:15:37.406Z,4.43
2023-04-26T13:18:05.304Z,3.65
2023-04-26T13:20:32.892Z,4.25
2023-04-26T13:23:00.435Z,6.03
2023-04-26T13:25:27.950Z,3.92
2023-04-26T13:27:55.540Z,5.88
2023-04-26T13:30:23.100Z,5.85
2023-04-26T13:32:50.702Z,4.07
2023-04-26T13:35:18.226Z,5.30
2023-04-26T13:37:46.293Z,4.60
2023-04-26T13:40:14.014Z,4.03
2023-04-26T13:42:42.097Z,5.07
2023-04-26T13:45:10.211Z,5.70
2023-04-26T13:47:38.214Z,4.30
2023-04-26T13:50:06.127Z,3.38
2023-04-26T13:52:33.688Z,5.38
2023-04-26T13:55:01.355Z,4.90
2023-04-26T13:57:28.897Z,4.38
2023-04-26T13:59:56.492Z,4.32
2023-04-26T14:02:24.607Z,3.40
2023-04-26T14:04:52.845Z,3.90
2023-04-26T14:07:21.095Z,2.97
2023-04-26T14:09:48.652Z,3.30
2023-04-26T14:12:16.577Z,4.10
2023-04-26T14:14:46.201Z,3.45
2023-04-26T14:17:13.721Z,4.65
2023-04-26T14:19:42.166Z,5.85
2023-04-26T14:22:12.678Z,2.35
2023-04-26T14:24:40.280Z,3.25
2023-04-26T14:27:07.802Z,4.93
2023-04-26T14:29:35.354Z,2.40
2023-04-26T14:32:09.873Z,5.95
2023-04-26T14:34:53.364Z,4.20
2023-04-26T14:37:28.411Z,7.53
2023-04-26T14:39:57.062Z,5.38
2023-04-26T14:42:24.858Z,5.97
2023-04-26T14:44:52.432Z,4.15
2023-04-26T14:47:20.120Z,5.07
2023-04-26T14:49:47.649Z,4.05
2023-04-26T14:52:15.318Z,2.75
2023-04-26T14:54:42.876Z,6.85
2023-04-26T14:57:10.856Z,4.95
2023-04-26T14:59:38.400Z,5.80
2023-04-26T15:02:05.959Z,6.13
2023-04-26T15:04:33.800Z,3.90
2023-04-26T15:07:02.410Z,4.50
2023-04-26T15:09:30.867Z,3.88
2023-04-26T15:11:58.456Z,5.38
2023-04-26T15:14:25.951Z,4.15
2023-04-26T15:16:53.530Z,6.72
2023-04-26T15:19:21.081Z,5.00
2023-04-26T15:21:49.213Z,4.47
2023-04-26T15:24:16.900Z,4.72
2023-04-26T15:26:44.486Z,5.63
2023-04-26T15:29:12.190Z,7.40
2023-04-26T15:31:39.806Z,7.07
2023-04-26T15:34:08.744Z,4.70
2023-04-26T15:36:36.308Z,7.85
2023-04-26T15:39:04.386Z,3.97
2023-04-26T15:41:32.019Z,4.60
2023-04-26T15:43:59.945Z,4.53
2023-04-26T15:46:27.886Z,5.88
2023-04-26T15:48:55.574Z,4.45
2023-04-26T15:51:23.158Z,3.70
2023-04-26T15:53:51.378Z,6.80
2023-04-26T15:56:18.880Z,4.70
2023-04-26T15:58:46.881Z,3.50
2023-04-26T16:01:14.642Z,4.13
2023-04-26T16:03:46.423Z,4.20
2023-04-26T16:06:15.381Z,8.45
2023-04-26T16:08:43.206Z,3.15
2023-04-26T16:11:11.104Z,3.30
2023-04-26T16:13:38.688Z,6.07
2023-04-26T16:16:10.484Z,5.10
2023-04-26T16:21:09.467Z,6.68
2023-04-26T16:23:37.454Z,6.07
2023-04-26T16:26:05.059Z,4.82
2023-04-26T16:28:33.800Z,6.50
2023-04-26T16:31:01.490Z,7.18
2023-04-26T16:33:29.142Z,5.75
2023-04-26T16:35:56.662Z,4.80
2023-04-26T16:38:24.395Z,6.05
2023-04-26T16:40:58.884Z,7.57
2023-04-26T16:43:27.181Z,5.22
2023-04-26T16:45:58.460Z,7.18
2023-04-26T16:48:26.163Z,5.68
2023-04-26T16:50:53.803Z,6.22
2023-04-26T16:53:21.792Z,5.68
2023-04-26T16:55:50.396Z,4.32
2023-04-26T16:58:18.162Z,6.43
2023-04-26T17:00:46.040Z,5.15
2023-04-26T17:03:13.723Z,8.23
2023-04-26T17:05:50.734Z,6.25
2023-04-26T17:08:19.105Z,5.40
2023-04-26T17:10:47.250Z,8.68
2023-04-26T17:13:15.076Z,4.93
2023-04-26T17:15:42.912Z,5.65
2023-04-26T17:18:10.926Z,6.03
2023-04-26T17:20:38.735Z,6.63
2023-04-26T17:23:07.809Z,7.35
2023-04-26T17:25:35.754Z,6.90
2023-04-26T17:28:03.608Z,7.25
2023-04-26T17:30:31.160Z,6.35
2023-04-26T17:32:58.780Z,10.00
2023-04-26T17:35:26.491Z,4.88
2023-04-26T17:37:54.069Z,7.32
2023-04-26T17:40:21.680Z,6.82
2023-04-26T17:42:49.278Z,5.78
2023-04-26T17:45:17.216Z,9.45
2023-04-26T17:47:45.843Z,5.10
2023-04-26T17:50:13.622Z,4.90
2023-04-26T17:52:41.982Z,6.03
2023-04-26T17:55:10.129Z,4.60
2023-04-26T17:57:38.141Z,7.60
2023-04-26T18:00:12.588Z,3.80
2023-04-26T18:02:40.166Z,7.03
2023-04-26T18:05:08.550Z,6.07
2023-04-26T18:07:36.257Z,5.18
2023-04-26T18:10:04.170Z,3.58
2023-04-26T18:12:31.877Z,6.30
2023-04-26T18:14:59.613Z,4.80
2023-04-26T18:17:27.420Z,5.78
2023-04-26T18:19:55.783Z,3.47
2023-04-26T18:22:23.296Z,7.10
2023-04-26T18:24:50.942Z,9.27
2023-04-26T18:27:18.497Z,9.18
2023-04-26T18:29:46.160Z,6.13
2023-04-26T18:32:13.717Z,6.22
2023-04-26T18:34:41.512Z,5.57
2023-04-26T18:37:09.333Z,8.00
2023-04-26T18:39:36.840Z,8.23
2023-04-26T18:42:04.478Z,6.00
2023-04-26T18:44:32.601Z,5.75
2023-04-26T18:47:00.319Z,9.93
2023-04-26T18:49:27.941Z,4.95
2023-04-26T18:51:57.101Z,4.90
2023-04-26T18:54:26.169Z,9.32
2023-04-26T18:56:54.082Z,3.67
2023-04-26T18:59:21.599Z,7.07
2023-04-26T19:01:49.382Z,4.05
2023-04-26T19:04:17.268Z,4.75
2023-04-26T19:06:44.971Z,4.65
2023-04-26T19:09:13.698Z,5.10
2023-04-26T19:11:41.387Z,10.50
2023-04-26T19:14:08.979Z,6.25
2023-04-26T19:16:36.570Z,5.78
2023-04-26T19:19:04.172Z,7.30
2023-04-26T19:21:32.121Z,3.83
2023-04-26T19:23:59.750Z,4.32
2023-04-26T19:26:27.273Z,9.40
2023-04-26T19:28:55.709Z,5.28
2023-04-26T19:31:23.617Z,8.25
2023-04-26T19:33:51.259Z,5.70
2023-04-26T19:36:18.930Z,5.85
2023-04-26T19:38:48.318Z,8.25
2023-04-26T19:41:15.912Z,6.00
2023-04-26T19:43:43.425Z,6.97
2023-04-26T19:46:11.597Z,5.53
2023-04-26T19:48:39.364Z,6.05
2023-04-26T19:51:07.788Z,7.72
2023-04-26T19:53:35.545Z,7.28
2023-04-26T19:56:03.097Z,7.22
2023-04-26T19:58:30.713Z,6.18
2023-04-26T20:00:58.380Z,10.45
2023-04-26T20:03:26.430Z,8.10
2023-04-26T20:05:54.131Z,7.90
2023-04-26T20:08:21.663Z,4.75
2023-04-26T20:10:49.166Z,12.57
2023-04-26T20:13:17.080Z,6.72
2023-04-26T20:15:44.589Z,7.30
2023-04-26T20:18:12.105Z,13.85
2023-04-26T20:20:39.646Z,8.73
2023-04-26T20:23:07.701Z,11.10
2023-04-26T20:25:35.204Z,9.80
2023-04-26T20:28:04.059Z,10.90
2023-04-26T20:30:33.628Z,10.13
2023-04-26T20:33:01.337Z,9.20
2023-04-26T20:35:28.963Z,11.10
2023-04-26T20:37:56.510Z,10.45
2023-04-26T20:40:24.111Z,11.73
2023-04-26T20:42:51.674Z,8.68
2023-04-26T20:45:19.249Z,10.48
2023-04-26T20:47:47.151Z,5.53
2023-04-26T20:50:14.779Z,7.90
2023-04-26T20:52:42.302Z,8.40
2023-04-26T20:55:09.890Z,6.93
2023-04-26T20:57:38.332Z,8.80
2023-04-26T21:00:07.520Z,7.78
2023-04-26T21:02:35.133Z,7.40
2023-04-26T21:05:02.909Z,8.95
2023-04-26T21:07:30.421Z,6.60
2023-04-26T21:09:58.055Z,9.80
2023-04-26T21:12:25.769Z,9.10
2023-04-26T21:14:53.283Z,9.65
2023-04-26T21:17:20.885Z,10.30
2023-04-26T21:19:48.466Z,9.43
2023-04-26T21:22:16.124Z,5.57
2023-04-26T21:24:43.644Z,6.15
2023-04-26T21:27:11.208Z,7.95
2023-04-26T21:29:39.249Z,5.70
2023-04-26T21:32:06.767Z,10.90
2023-04-26T21:34:34.288Z,8.98
2023-04-26T21:37:01.826Z,6.25
2023-04-26T21:39:29.373Z,7.00
2023-04-26T21:41:56.877Z,5.13
2023-04-26T21:44:24.397Z,7.63
2023-04-26T21:46:52.353Z,5.43
2023-04-26T21:49:19.928Z,6.88
2023-04-26T21:51:47.529Z,12.23
2023-04-26T21:54:15.066Z,6.75
2023-04-26T21:56:42.664Z,6.60
2023-04-26T21:59:12.095Z,9.48
2023-04-26T22:01:39.998Z,6.10
2023-04-26T22:04:07.644Z,8.68
2023-04-26T22:06:35.472Z,7.45
2023-04-26T22:09:04.026Z,6.13
2023-04-26T22:11:31.528Z,8.43
2023-04-26T22:13:59.075Z,7.22
2023-04-26T22:16:27.035Z,8.52
2023-04-26T22:18:54.610Z,6.18
2023-04-26T22:21:22.218Z,8.10
2023-04-26T22:23:49.745Z,9.43
2023-04-26T22:26:17.306Z,6.57
2023-04-26T22:28:44.937Z,4.97
2023-04-26T22:31:12.449Z,5.55
2023-04-26T22:33:39.994Z,8.38
2023-04-26T22:36:07.655Z,6.10
2023-04-26T22:38:35.377Z,7.35
2023-04-26T22:41:04.144Z,6.22
2023-04-26T22:43:31.932Z,8.45
2023-04-26T22:45:59.496Z,6.85
2023-04-26T22:48:27.037Z,8.90
2023-04-26T22:50:54.628Z,7.35
2023-04-26T22:53:22.184Z,8.75
2023-04-26T22:55:51.641Z,5.60
2023-04-26T22:58:19.166Z,6.07
2023-04-26T23:00:46.752Z,5.85
2023-04-26T23:03:14.410Z,7.47
2023-04-26T23:05:41.941Z,6.05
2023-04-26T23:08:09.478Z,7.45
2023-04-26T23:10:37.017Z,8.02
2023-04-26T23:13:04.797Z,6.82
2023-04-26T23:15:32.889Z,8.77
2023-04-26T23:18:00.773Z,5.65
2023-04-26T23:20:28.808Z,7.80
2023-04-26T23:22:56.487Z,6.25
2023-04-26T23:25:24.180Z,6.40
2023-04-26T23:27:51.705Z,7.50
2023-04-26T23:30:19.282Z,5.63
2023-04-26T23:32:46.894Z,6.22
2023-04-26T23:35:14.501Z,8.10
2023-04-26T23:37:42.060Z,8.23
2023-04-26T23:40:10.228Z,5.07
2023-04-26T23:42:37.818Z,9.20
2023-04-26T23:45:05.725Z,10.02
2023-04-26T23:47:33.339Z,5.07
2023-04-26T23:50:00.869Z,6.30
2023-04-26T23:52:28.497Z,4.70
2023-04-26T23:54:56.225Z,6.88
2023-04-26T23:57:23.824Z,8.30
2023-04-26T23:59:52.599Z,7.10
